createdAt,value
2023-01-03T00:00:31.742Z,1.83
2023-01-03T00:02:34.489Z,1.85
2023-01-03T00:04:37.205Z,2.10
2023-01-03T00:06:47.209Z,1.67
2023-01-03T00:08:50.669Z,2.08
2023-01-03T00:10:53.270Z,1.80
2023-01-03T00:12:57.725Z,1.20
2023-01-03T00:15:00.463Z,1.20
2023-01-03T00:17:05.295Z,1.58
2023-01-03T00:19:13.202Z,1.48
2023-01-03T00:21:15.944Z,1.17
2023-01-03T00:23:18.536Z,1.20
2023-01-03T00:25:21.234Z,1.60
2023-01-03T00:27:23.957Z,2.08
2023-01-03T00:29:26.749Z,2.13
2023-01-03T00:31:29.503Z,2.38
2023-01-03T00:33:32.709Z,2.97
2023-01-03T00:35:35.304Z,2.40
2023-01-03T00:37:38.011Z,1.70
2023-01-03T00:39:41.303Z,1.98
2023-01-03T00:41:44.022Z,1.90
2023-01-03T00:43:48.102Z,1.77
2023-01-03T00:45:50.735Z,1.40
2023-01-03T00:47:53.371Z,1.98
2023-01-03T00:49:55.978Z,1.60
2023-01-03T00:51:58.772Z,2.20
2023-01-03T00:54:03.542Z,1.67
2023-01-03T00:56:09.588Z,2.72
2023-01-03T00:58:12.356Z,2.38
2023-01-03T01:00:15.333Z,1.75
2023-01-03T01:02:20.685Z,1.30
2023-01-03T01:04:26.515Z,2.47
2023-01-03T01:06:31.574Z,2.58
2023-01-03T01:08:34.227Z,2.60
2023-01-03T01:10:36.907Z,1.88
2023-01-03T01:12:39.534Z,2.10
2023-01-03T01:14:42.206Z,2.08
2023-01-03T01:16:44.874Z,2.60
2023-01-03T01:18:49.332Z,3.47
2023-01-03T01:20:53.065Z,2.28
2023-01-03T01:22:55.696Z,2.15
2023-01-03T01:24:58.294Z,2.65
2023-01-03T01:27:01.039Z,1.70
2023-01-03T01:29:04.136Z,2.55
2023-01-03T01:31:07.795Z,2.13
2023-01-03T01:33:10.466Z,1.98
2023-01-03T01:35:13.118Z,1.88
2023-01-03T01:37:15.780Z,1.90
2023-01-03T01:39:26.562Z,2.60
2023-01-03T01:41:50.427Z,1.98
2023-01-03T01:44:16.601Z,2.58
2023-01-03T01:46:24.962Z,3.10
2023-01-03T01:48:27.880Z,2.03
2023-01-03T01:50:45.874Z,2.30
2023-01-03T01:53:12.472Z,2.33
2023-01-03T01:55:20.693Z,1.83
2023-01-03T01:57:25.960Z,1.80
2023-01-03T01:59:28.733Z,1.58
2023-01-03T02:01:31.780Z,1.70
2023-01-03T02:03:34.883Z,1.35
2023-01-03T02:05:48.768Z,1.50
2023-01-03T02:07:53.027Z,1.38
2023-01-03T02:09:57.793Z,0.98
2023-01-03T02:12:57.856Z,1.25
2023-01-03T02:15:28.026Z,1.10
2023-01-03T02:17:52.674Z,1.40
2023-01-03T02:20:10.173Z,1.23
2023-01-03T02:22:18.817Z,1.10
2023-01-03T02:24:43.332Z,1.00
2023-01-03T02:27:04.281Z,0.90
2023-01-03T02:29:29.204Z,0.80
2023-01-03T02:32:01.387Z,1.10
2023-01-03T02:36:24.999Z,1.15
2023-01-03T02:38:36.298Z,0.95
2023-01-03T02:40:49.894Z,0.88
2023-01-03T02:43:02.247Z,0.90
2023-01-03T02:45:11.913Z,0.90
2023-01-03T02:47:16.164Z,0.65
2023-01-03T02:49:24.904Z,0.40
2023-01-03T02:51:55.882Z,0.98
2023-01-03T02:54:00.293Z,0.80
2023-01-03T02:56:09.776Z,0.70
2023-01-03T02:58:23.622Z,0.98
2023-01-03T03:00:29.860Z,0.68
2023-01-03T03:02:36.359Z,0.60
2023-01-03T03:04:40.828Z,0.80
2023-01-03T03:07:11.585Z,0.60
2023-01-03T03:09:14.261Z,0.77
2023-01-03T03:11:35.785Z,0.60
2023-01-03T03:13:47.060Z,0.82
2023-01-03T03:16:00.751Z,0.85
2023-01-03T03:18:13.511Z,1.00
2023-01-03T03:20:36.221Z,0.70
2023-01-03T03:23:00.327Z,1.10
2023-01-03T03:25:08.165Z,0.98
2023-01-03T03:27:47.773Z,0.45
2023-01-03T03:29:53.537Z,0.88
2023-01-03T03:31:57.198Z,0.60
2023-01-03T03:33:59.728Z,0.60
2023-01-03T03:36:08.780Z,0.90
2023-01-03T03:38:16.435Z,0.70
2023-01-03T03:40:38.111Z,1.02
2023-01-03T03:43:14.974Z,1.05
2023-01-03T03:45:37.505Z,0.70
2023-01-03T03:48:01.274Z,0.90
2023-01-03T03:50:14.201Z,0.90
2023-01-03T03:52:21.357Z,1.00
2023-01-03T03:54:26.495Z,0.63
2023-01-03T03:56:32.888Z,0.70
2023-01-03T03:59:05.561Z,1.15
2023-01-03T04:01:11.760Z,1.38
2023-01-03T04:03:16.199Z,1.05
2023-01-03T04:05:23.433Z,0.60
2023-01-03T04:07:26.357Z,0.90
2023-01-03T04:09:29.070Z,0.60
2023-01-03T04:11:31.792Z,0.70
2023-01-03T04:13:36.729Z,0.70
2023-01-03T04:15:39.411Z,0.85
2023-01-03T04:17:42.463Z,0.70
2023-01-03T04:19:45.127Z,0.52
2023-01-03T04:21:47.764Z,0.80
2023-01-03T04:23:50.529Z,1.10
2023-01-03T04:25:53.234Z,0.90
2023-01-03T04:27:55.909Z,0.88
2023-01-03T04:29:58.565Z,0.68
2023-01-03T04:32:01.304Z,0.82
2023-01-03T04:34:04.014Z,1.10
2023-01-03T04:36:06.944Z,1.30
2023-01-03T04:38:09.603Z,0.85
2023-01-03T04:40:12.391Z,1.52
2023-01-03T04:42:33.794Z,0.80
2023-01-03T04:44:36.377Z,0.65
2023-01-03T04:46:44.075Z,1.30
2023-01-03T04:48:49.071Z,0.70
2023-01-03T04:50:57.227Z,0.70
2023-01-03T04:53:00.169Z,0.70
2023-01-03T04:55:02.798Z,0.95
2023-01-03T04:57:06.226Z,0.50
2023-01-03T04:59:08.937Z,0.77
2023-01-03T05:01:11.664Z,0.70
2023-01-03T05:03:14.601Z,1.13
2023-01-03T05:05:17.373Z,0.88
2023-01-03T05:07:19.934Z,0.68
2023-01-03T05:09:23.305Z,0.90
2023-01-03T05:11:26.105Z,0.77
2023-01-03T05:13:28.800Z,0.80
2023-01-03T05:15:35.034Z,0.82
2023-01-03T05:17:37.750Z,0.60
2023-01-03T05:20:00.436Z,1.05
2023-01-03T05:22:21.705Z,0.65
2023-01-03T05:24:42.718Z,1.00
2023-01-03T05:26:46.147Z,0.90
2023-01-03T05:28:53.550Z,0.90
2023-01-03T05:31:01.203Z,0.77
2023-01-03T05:33:03.895Z,1.00
2023-01-03T05:35:06.852Z,0.70
2023-01-03T05:37:09.831Z,0.57
2023-01-03T05:39:12.823Z,1.00
2023-01-03T05:41:35.943Z,0.70
2023-01-03T05:43:38.700Z,0.80
2023-01-03T05:45:41.490Z,0.90
2023-01-03T05:47:44.171Z,0.68
2023-01-03T05:49:46.832Z,0.50
2023-01-03T05:51:49.862Z,1.15
2023-01-03T05:53:52.849Z,0.75
2023-01-03T05:55:55.584Z,0.95
2023-01-03T05:57:58.202Z,1.10
2023-01-03T06:00:00.896Z,0.85
2023-01-03T06:02:03.773Z,0.70
2023-01-03T06:04:07.291Z,0.82
2023-01-03T06:06:10.081Z,1.00
2023-01-03T06:08:12.721Z,0.90
2023-01-03T06:10:15.484Z,1.02
2023-01-03T06:12:18.092Z,1.13
2023-01-03T06:14:20.940Z,1.30
2023-01-03T06:16:42.330Z,1.25
2023-01-03T06:18:45.064Z,1.23
2023-01-03T06:20:47.681Z,1.20
2023-01-03T06:22:50.277Z,1.55
2023-01-03T06:24:53.223Z,0.88
2023-01-03T06:26:56.026Z,0.68
2023-01-03T06:28:59.460Z,1.30
2023-01-03T06:31:04.109Z,1.30
2023-01-03T06:33:06.877Z,1.45
2023-01-03T06:35:09.840Z,2.35
2023-01-03T06:37:12.475Z,1.50
2023-01-03T06:39:15.098Z,1.05
2023-01-03T06:41:17.905Z,0.90
2023-01-03T06:43:20.592Z,0.73
2023-01-03T06:45:41.857Z,1.20
2023-01-03T06:48:02.916Z,0.75
2023-01-03T06:50:24.386Z,1.15
2023-01-03T06:52:45.445Z,1.13
2023-01-03T06:54:48.371Z,0.90
2023-01-03T06:56:51.980Z,0.50
2023-01-03T06:58:54.876Z,0.63
2023-01-03T07:01:00.325Z,0.95
2023-01-03T07:03:08.866Z,1.10
2023-01-03T07:05:14.152Z,0.50
2023-01-03T07:07:16.769Z,0.50
2023-01-03T07:09:19.442Z,0.70
2023-01-03T07:11:25.198Z,0.88
2023-01-03T07:13:46.519Z,0.60
2023-01-03T07:15:49.116Z,0.63
2023-01-03T07:17:51.850Z,0.75
2023-01-03T07:19:54.526Z,0.70
2023-01-03T07:21:57.169Z,0.55
2023-01-03T07:24:04.402Z,0.80
2023-01-03T07:26:07.303Z,0.45
2023-01-03T07:28:12.233Z,0.75
2023-01-03T07:30:15.051Z,0.65
2023-01-03T07:32:17.643Z,0.75
2023-01-03T07:34:20.239Z,0.50
2023-01-03T07:36:23.028Z,0.65
2023-01-03T07:38:25.660Z,0.73
2023-01-03T07:40:28.704Z,0.60
2023-01-03T07:42:49.704Z,1.25
2023-01-03T07:44:52.273Z,0.60
2023-01-03T07:46:55.039Z,0.70
2023-01-03T07:49:05.055Z,0.52
2023-01-03T07:51:12.538Z,0.77
2023-01-03T07:53:17.183Z,0.63
2023-01-03T07:55:19.902Z,0.68
2023-01-03T07:57:22.497Z,0.80
2023-01-03T07:59:25.117Z,0.80
2023-01-03T08:01:30.259Z,0.73
2023-01-03T08:03:33.545Z,0.82
2023-01-03T08:05:36.580Z,0.80
2023-01-03T08:07:39.222Z,0.60
2023-01-03T08:10:00.509Z,0.60
2023-01-03T08:12:22.014Z,0.77
2023-01-03T08:14:26.510Z,0.73
2023-01-03T08:16:30.012Z,0.50
2023-01-03T08:18:32.672Z,0.50
2023-01-03T08:20:35.337Z,0.50
2023-01-03T08:22:37.915Z,0.40
2023-01-03T08:24:40.576Z,0.90
2023-01-03T08:26:43.253Z,0.45
2023-01-03T08:28:46.415Z,0.95
2023-01-03T08:30:50.143Z,1.50
2023-01-03T08:32:55.381Z,1.00
2023-01-03T08:34:58.516Z,1.13
2023-01-03T08:37:07.373Z,1.25
2023-01-03T08:39:13.710Z,1.13
2023-01-03T08:41:20.959Z,0.90
2023-01-03T08:43:23.997Z,0.65
2023-01-03T08:45:27.629Z,1.38
2023-01-03T08:47:30.964Z,0.98
2023-01-03T08:49:33.661Z,0.70
2023-01-03T08:51:36.345Z,0.80
2023-01-03T08:53:40.264Z,1.20
2023-01-03T08:55:43.056Z,1.45
2023-01-03T08:57:45.914Z,1.05
2023-01-03T08:59:48.996Z,1.10
2023-01-03T09:01:51.875Z,0.73
2023-01-03T09:03:54.898Z,1.25
2023-01-03T09:06:02.036Z,0.93
2023-01-03T09:08:05.342Z,0.85
2023-01-03T09:10:08.782Z,0.70
2023-01-03T09:12:11.479Z,0.95
2023-01-03T09:14:14.751Z,0.90
2023-01-03T09:16:17.731Z,0.90
2023-01-03T09:18:20.438Z,1.05
2023-01-03T09:20:23.501Z,1.13
2023-01-03T09:22:26.588Z,1.38
2023-01-03T09:24:29.412Z,1.02
2023-01-03T09:26:32.201Z,0.70
2023-01-03T09:28:35.347Z,0.68
2023-01-03T09:30:38.155Z,0.70
2023-01-03T09:32:41.183Z,0.30
2023-01-03T09:34:44.319Z,0.30
2023-01-03T09:36:47.267Z,1.23
2023-01-03T09:38:50.370Z,0.60
2023-01-03T09:41:03.220Z,0.63
2023-01-03T09:43:21.502Z,0.65
2023-01-03T09:45:34.582Z,0.43
2023-01-03T09:47:39.429Z,0.43
2023-01-03T09:50:04.614Z,0.90
2023-01-03T09:52:24.695Z,0.43
2023-01-03T09:54:57.777Z,0.32
2023-01-03T09:57:23.152Z,0.60
2023-01-03T09:59:56.181Z,0.63
2023-01-03T10:02:54.470Z,0.30
2023-01-03T10:05:24.831Z,0.38
2023-01-03T10:07:42.241Z,0.43
2023-01-03T10:10:12.312Z,0.45
2023-01-03T10:12:35.430Z,0.40
2023-01-03T10:14:56.175Z,0.68
2023-01-03T10:17:16.691Z,0.57
2023-01-03T10:19:56.248Z,0.77
2023-01-03T10:22:09.226Z,1.00
2023-01-03T10:24:22.482Z,0.57
2023-01-03T10:26:33.315Z,0.70
2023-01-03T10:28:42.336Z,0.40
2023-01-03T10:30:58.342Z,3.03
2023-01-03T10:33:15.651Z,1.00
2023-01-03T10:35:25.293Z,1.17
2023-01-03T10:37:28.361Z,0.50
2023-01-03T10:39:32.317Z,0.40
2023-01-03T10:41:52.892Z,0.50
2023-01-03T10:44:00.899Z,1.00
2023-01-03T10:46:23.015Z,0.60
2023-01-03T10:48:59.928Z,4.40
2023-01-03T10:51:05.448Z,1.05
2023-01-03T10:53:11.520Z,1.00
2023-01-03T10:55:19.146Z,0.50
2023-01-03T10:57:39.452Z,0.40
2023-01-03T10:59:49.497Z,0.70
2023-01-03T11:02:15.426Z,0.60
2023-01-03T11:04:20.050Z,0.28
2023-01-03T11:06:22.697Z,0.68
2023-01-03T11:08:44.498Z,0.63
2023-01-03T11:10:54.549Z,1.23
2023-01-03T11:12:58.711Z,0.90
2023-01-03T11:15:04.967Z,0.95
2023-01-03T11:17:13.088Z,0.60
2023-01-03T11:19:18.898Z,0.80
2023-01-03T11:21:30.489Z,0.70
2023-01-03T11:24:02.741Z,1.88
2023-01-03T11:26:20.776Z,2.17
2023-01-03T11:28:46.183Z,5.75
2023-01-03T11:31:25.126Z,3.67
2023-01-03T11:33:56.643Z,1.85
2023-01-03T11:36:07.396Z,1.33
2023-01-03T11:38:25.226Z,1.13
2023-01-03T11:40:44.927Z,1.60
2023-01-03T11:43:16.104Z,1.60
2023-01-03T11:45:34.782Z,1.65
2023-01-03T11:47:58.989Z,2.45
2023-01-03T11:50:15.603Z,1.05
2023-01-03T11:52:50.136Z,1.85
2023-01-03T11:55:10.802Z,1.55
2023-01-03T11:57:36.232Z,1.60
2023-01-03T11:59:57.164Z,4.45
2023-01-03T12:02:20.007Z,1.90
2023-01-03T12:04:37.850Z,1.88
2023-01-03T12:10:10.511Z,2.83
2023-01-03T12:12:22.105Z,2.13
2023-01-03T12:14:32.600Z,1.30
2023-01-03T12:17:00.873Z,2.10
2023-01-03T12:19:12.496Z,1.77
2023-01-03T12:21:37.656Z,2.00
2023-01-03T12:23:48.904Z,2.97
2023-01-03T12:25:56.310Z,1.63
2023-01-03T12:28:10.806Z,2.05
2023-01-03T12:30:42.982Z,2.03
2023-01-03T12:32:53.447Z,2.15
2023-01-03T12:35:17.469Z,1.83
2023-01-03T12:37:24.544Z,2.13
2023-01-03T12:39:49.383Z,1.42
2023-01-03T12:42:12.137Z,2.00
2023-01-03T12:44:34.866Z,2.42
2023-01-03T12:46:44.484Z,1.95
2023-01-03T12:49:13.538Z,1.92
2023-01-03T12:51:20.534Z,1.85
2023-01-03T12:53:25.833Z,2.00
2023-01-03T12:55:48.805Z,2.33
2023-01-03T12:58:23.462Z,1.88
2023-01-03T13:00:26.777Z,2.03
2023-01-03T13:03:02.227Z,1.88
2023-01-03T13:05:23.785Z,1.52
2023-01-03T13:07:30.267Z,2.65
2023-01-03T13:09:38.600Z,2.63
2023-01-03T13:11:55.077Z,2.20
2023-01-03T13:14:21.720Z,1.80
2023-01-03T13:16:36.647Z,1.85
2023-01-03T13:18:39.405Z,2.17
2023-01-03T13:20:46.355Z,2.85
2023-01-03T13:23:18.428Z,2.28
2023-01-03T13:25:27.010Z,1.65
2023-01-03T13:27:38.737Z,2.05
2023-01-03T13:29:54.483Z,2.38
2023-01-03T13:32:25.473Z,1.98
2023-01-03T13:34:33.384Z,2.25
2023-01-03T13:37:08.017Z,2.60
2023-01-03T13:39:40.263Z,3.15
2023-01-03T13:41:53.595Z,3.25
2023-01-03T13:44:06.623Z,2.78
2023-01-03T13:46:25.030Z,2.78
2023-01-03T13:48:37.592Z,3.08
2023-01-03T13:50:40.188Z,3.40
2023-01-03T13:53:05.069Z,2.75
2023-01-03T13:55:36.597Z,3.20
2023-01-03T13:57:53.580Z,2.80
2023-01-03T13:59:59.414Z,2.97
2023-01-03T14:02:10.622Z,2.28
2023-01-03T14:04:41.442Z,2.90
2023-01-03T14:07:05.302Z,2.85
2023-01-03T14:09:45.041Z,2.55
2023-01-03T14:12:12.060Z,3.08
2023-01-03T14:14:22.545Z,3.00
2023-01-03T14:16:29.178Z,2.63
2023-01-03T14:18:33.788Z,2.72
2023-01-03T14:20:37.326Z,3.33
2023-01-03T14:22:48.451Z,2.30
2023-01-03T14:24:57.688Z,3.03
2023-01-03T14:27:16.993Z,2.35
2023-01-03T14:29:23.420Z,2.65
2023-01-03T14:31:28.462Z,2.60
2023-01-03T14:33:42.776Z,3.00
2023-01-03T14:35:46.003Z,3.50
2023-01-03T14:37:48.700Z,3.13
2023-01-03T14:40:03.749Z,2.70
2023-01-03T14:42:15.139Z,3.38
2023-01-03T14:44:17.888Z,2.85
2023-01-03T14:46:20.562Z,2.85
2023-01-03T14:48:25.096Z,3.13
2023-01-03T14:50:30.360Z,2.72
2023-01-03T14:52:42.361Z,2.70
2023-01-03T14:56:49.258Z,2.88
2023-01-03T14:58:52.034Z,2.72
2023-01-03T15:00:55.255Z,2.83
2023-01-03T15:02:58.190Z,3.33
2023-01-03T15:05:02.896Z,2.58
2023-01-03T15:07:13.014Z,3.03
2023-01-03T15:09:22.651Z,3.00
2023-01-03T15:11:55.852Z,3.83
2023-01-03T15:14:07.015Z,3.30
2023-01-03T15:16:38.696Z,3.22
2023-01-03T15:18:44.163Z,3.55
2023-01-03T15:20:46.834Z,2.92
2023-01-03T15:22:49.629Z,2.92
2023-01-03T15:25:05.285Z,3.05
2023-01-03T15:27:33.167Z,3.00
2023-01-03T15:29:45.197Z,3.00
2023-01-03T15:34:14.182Z,2.90
2023-01-03T15:36:19.368Z,3.55
2023-01-03T15:38:35.785Z,3.13
2023-01-03T15:40:40.423Z,2.65
2023-01-03T15:43:03.120Z,3.88
2023-01-03T15:45:12.368Z,3.28
2023-01-03T15:47:21.326Z,2.70
2023-01-03T15:49:27.203Z,2.65
2023-01-03T15:51:29.949Z,3.63
2023-01-03T15:53:44.217Z,2.90
2023-01-03T15:55:49.758Z,2.97
2023-01-03T15:57:54.216Z,3.42
2023-01-03T16:00:00.237Z,3.08
2023-01-03T16:02:04.279Z,2.75
2023-01-03T16:04:07.002Z,3.30
2023-01-03T16:06:09.670Z,2.55
2023-01-03T16:08:35.172Z,3.15
2023-01-03T16:10:38.060Z,2.17
2023-01-03T16:12:42.802Z,3.10
2023-01-03T16:14:50.512Z,2.53
2023-01-03T16:16:57.171Z,2.47
2023-01-03T16:19:00.594Z,3.17
2023-01-03T16:21:04.892Z,2.85
2023-01-03T16:23:26.259Z,3.03
2023-01-03T16:29:34.935Z,2.78
2023-01-03T16:31:38.561Z,3.47
2023-01-03T16:33:42.966Z,3.65
2023-01-03T16:35:45.913Z,3.60
2023-01-03T16:37:54.443Z,2.90
2023-01-03T16:39:58.445Z,3.28
2023-01-03T16:42:13.304Z,3.28
2023-01-03T16:44:16.053Z,2.85
2023-01-03T16:46:21.846Z,2.80
2023-01-03T16:48:26.404Z,2.58
2023-01-03T16:50:29.088Z,2.58
2023-01-03T16:52:37.795Z,3.13
2023-01-03T16:54:42.744Z,2.83
2023-01-03T16:56:45.941Z,3.10
2023-01-03T16:58:48.922Z,3.08
2023-01-03T17:00:52.421Z,2.78
2023-01-03T17:03:01.374Z,2.67
2023-01-03T17:05:04.508Z,2.78
2023-01-03T17:07:15.403Z,2.72
2023-01-03T17:09:22.831Z,2.78
2023-01-03T17:11:26.664Z,3.25
2023-01-03T17:13:33.063Z,2.90
2023-01-03T17:15:35.632Z,3.17
2023-01-03T17:17:38.216Z,2.63
2023-01-03T17:20:03.375Z,3.53
2023-01-03T17:22:03.518Z,3.05
2023-01-03T17:24:16.874Z,3.38
2023-01-03T17:26:22.917Z,3.08
2023-01-03T17:28:25.601Z,3.08
2023-01-03T17:30:29.157Z,2.58
2023-01-03T17:32:32.376Z,2.92
2023-01-03T17:34:34.966Z,3.38
2023-01-03T17:36:37.704Z,3.10
2023-01-03T17:38:44.324Z,2.65
2023-01-03T17:40:49.947Z,2.67
2023-01-03T17:42:55.584Z,2.60
2023-01-03T17:45:35.663Z,2.67
2023-01-03T17:48:02.857Z,2.90
2023-01-03T17:50:05.823Z,2.55
2023-01-03T17:52:20.672Z,3.00
2023-01-03T17:54:43.525Z,3.03
2023-01-03T17:56:47.006Z,3.17
2023-01-03T17:58:56.006Z,2.60
2023-01-03T18:00:59.718Z,2.88
2023-01-03T18:03:02.661Z,2.75
2023-01-03T18:05:16.371Z,2.03
2023-01-03T18:07:25.519Z,2.67
2023-01-03T18:09:31.634Z,2.42
2023-01-03T18:11:34.397Z,2.58
2023-01-03T18:13:38.635Z,2.50
2023-01-03T18:15:41.266Z,2.65
2023-01-03T18:17:46.235Z,2.28
2023-01-03T18:19:49.256Z,2.63
2023-01-03T18:21:52.108Z,2.53
2023-01-03T18:24:08.028Z,3.22
2023-01-03T18:26:14.018Z,3.13
2023-01-03T18:28:21.690Z,2.65
2023-01-03T18:30:24.537Z,2.45
2023-01-03T18:32:29.789Z,3.13
2023-01-03T18:34:32.456Z,2.05
2023-01-03T18:36:42.182Z,3.22
2023-01-03T18:38:44.753Z,2.63
2023-01-03T18:40:47.463Z,2.45
2023-01-03T18:43:08.330Z,2.85
2023-01-03T18:45:15.291Z,2.85
2023-01-03T18:47:18.994Z,2.65
2023-01-03T18:49:21.592Z,2.50
2023-01-03T18:51:28.110Z,2.65
2023-01-03T18:53:33.414Z,2.55
2023-01-03T18:55:37.933Z,2.70
2023-01-03T18:57:40.930Z,3.00
2023-01-03T18:59:43.601Z,2.72
2023-01-03T19:01:46.667Z,2.97
2023-01-03T19:03:51.122Z,3.67
2023-01-03T19:05:55.534Z,3.25
2023-01-03T19:07:58.658Z,3.63
2023-01-03T19:10:05.974Z,2.95
2023-01-03T19:12:16.630Z,2.30
2023-01-03T19:14:19.273Z,2.70
2023-01-03T19:16:32.321Z,2.78
2023-01-03T19:18:34.916Z,3.40
2023-01-03T19:20:37.548Z,3.92
2023-01-03T19:22:43.495Z,3.42
2023-01-03T19:24:46.437Z,3.60
2023-01-03T19:26:55.030Z,3.55
2023-01-03T19:29:01.367Z,4.03
2023-01-03T19:31:05.264Z,2.72
2023-01-03T19:33:13.839Z,3.65
2023-01-03T19:35:16.998Z,3.20
2023-01-03T19:37:19.848Z,3.55
2023-01-03T19:39:26.645Z,3.65
2023-01-03T19:41:31.670Z,3.47
2023-01-03T19:43:35.557Z,4.07
2023-01-03T19:45:41.195Z,3.42
2023-01-03T19:47:44.855Z,3.95
2023-01-03T19:49:48.777Z,3.47
2023-01-03T19:51:54.179Z,3.38
2023-01-03T19:53:56.930Z,2.70
2023-01-03T19:55:59.777Z,4.00
2023-01-03T19:58:12.544Z,4.30
2023-01-03T20:00:24.827Z,3.38
2023-01-03T20:02:33.587Z,3.92
2023-01-03T20:04:36.578Z,3.38
2023-01-03T20:06:39.399Z,4.05
2023-01-03T20:08:42.030Z,3.83
2023-01-03T20:10:45.247Z,3.35
2023-01-03T20:12:50.984Z,4.68
2023-01-03T20:15:00.004Z,4.35
2023-01-03T20:17:20.867Z,3.67
2023-01-03T20:19:23.477Z,4.60
2023-01-03T20:21:30.454Z,3.40
2023-01-03T20:23:37.349Z,4.90
2023-01-03T20:25:40.202Z,4.05
2023-01-03T20:27:45.964Z,4.20
2023-01-03T20:29:50.469Z,4.10
2023-01-03T20:31:53.488Z,4.00
2023-01-03T20:33:57.413Z,4.20
2023-01-03T20:36:12.619Z,4.30
2023-01-03T20:38:25.237Z,3.67
2023-01-03T20:40:29.096Z,4.18
2023-01-03T20:42:31.852Z,5.10
2023-01-03T20:44:34.757Z,4.53
2023-01-03T20:46:39.252Z,3.90
2023-01-03T20:48:42.394Z,5.00
2023-01-03T20:50:45.355Z,4.35
2023-01-03T20:52:48.440Z,5.35
2023-01-03T20:54:52.866Z,5.45
2023-01-03T20:56:55.688Z,4.60
2023-01-03T20:59:00.430Z,5.75
2023-01-03T21:01:05.186Z,5.13
2023-01-03T21:03:09.137Z,4.75
2023-01-03T21:05:15.143Z,5.38
2023-01-03T21:07:27.288Z,4.63
2023-01-03T21:11:42.262Z,4.57
2023-01-03T21:13:48.808Z,6.07
2023-01-03T21:15:52.459Z,5.47
2023-01-03T21:17:56.192Z,4.78
2023-01-03T21:20:01.336Z,8.32
2023-01-03T21:22:17.875Z,5.03
2023-01-03T21:24:23.802Z,6.05
2023-01-03T21:26:26.827Z,5.22
2023-01-03T21:28:29.608Z,4.68
2023-01-03T21:30:32.830Z,4.45
2023-01-03T21:32:35.553Z,5.13
2023-01-03T21:34:38.477Z,3.53
2023-01-03T21:36:41.023Z,4.68
2023-01-03T21:38:43.685Z,4.00
2023-01-03T21:40:49.137Z,4.00
2023-01-03T21:43:03.748Z,4.05
2023-01-03T21:45:12.823Z,4.47
2023-01-03T21:47:15.448Z,4.70
2023-01-03T21:49:18.140Z,6.55
2023-01-03T21:51:33.470Z,4.18
2023-01-03T21:53:40.987Z,6.57
2023-01-03T21:55:43.826Z,4.05
2023-01-03T21:57:46.831Z,4.35
2023-01-03T21:59:50.473Z,4.57
2023-01-03T22:02:12.024Z,5.63
2023-01-03T22:04:17.777Z,4.72
2023-01-03T22:06:20.382Z,4.97
2023-01-03T22:08:23.073Z,4.47
2023-01-03T22:10:25.745Z,7.15
2023-01-03T22:12:28.407Z,4.60
2023-01-03T22:14:31.209Z,5.35
2023-01-03T22:16:34.081Z,4.57
2023-01-03T22:18:37.163Z,4.75
2023-01-03T22:20:39.783Z,4.75
2023-01-03T22:22:43.584Z,4.60
2023-01-03T22:24:46.346Z,3.55
2023-01-03T22:26:49.726Z,4.20
2023-01-03T22:28:52.327Z,3.95
2023-01-03T22:30:54.982Z,4.25
2023-01-03T22:32:58.328Z,3.80
2023-01-03T22:35:00.926Z,4.13
2023-01-03T22:37:05.140Z,4.15
2023-01-03T22:39:07.847Z,4.00
2023-01-03T22:41:17.245Z,7.05
2023-01-03T22:43:19.905Z,3.10
2023-01-03T22:45:22.547Z,4.10
2023-01-03T22:47:25.490Z,3.63
2023-01-03T22:49:28.330Z,4.20
2023-01-03T22:51:30.927Z,3.25
2023-01-03T22:53:38.596Z,3.53
2023-01-03T22:55:42.604Z,3.20
2023-01-03T22:57:45.193Z,3.97
2023-01-03T22:59:47.841Z,3.45
2023-01-03T23:01:50.634Z,4.13
2023-01-03T23:03:55.010Z,3.42
2023-01-03T23:05:58.371Z,3.00
2023-01-03T23:08:00.980Z,3.33
2023-01-03T23:10:04.252Z,5.13
2023-01-03T23:12:26.091Z,3.53
2023-01-03T23:14:28.775Z,3.88
2023-01-03T23:16:32.536Z,3.25
2023-01-03T23:18:35.232Z,3.42
2023-01-03T23:20:49.184Z,3.28
2023-01-03T23:22:57.594Z,3.83
2023-01-03T23:25:02.310Z,3.60
2023-01-03T23:27:05.738Z,3.85
2023-01-03T23:29:10.033Z,3.28
2023-01-03T23:31:12.888Z,4.38
2023-01-03T23:33:16.267Z,5.22
2023-01-03T23:35:18.903Z,4.75
2023-01-03T23:37:21.528Z,4.47
2023-01-03T23:39:24.164Z,4.60
2023-01-03T23:41:26.790Z,4.38
2023-01-03T23:43:29.334Z,4.78
2023-01-03T23:45:31.924Z,4.63
2023-01-03T23:47:34.748Z,5.45
2023-01-03T23:49:37.302Z,4.80
2023-01-03T23:51:39.898Z,4.30
2023-01-03T23:53:44.018Z,4.07
2023-01-03T23:55:46.689Z,3.60
2023-01-03T23:57:49.346Z,3.33
2023-01-03T23:59:52.034Z,3.83
